Time;durP1;ratioP1;P1;durP2;ratioP2;P2;SDS_P1;SDS_P2;PMS_P1;PMS_P2;Temp;Humidity;BMP_temperature;BMP_pressure;BME280_temperature;BME280_humidity;BME280_pressure;Samples;Min_cycle;Max_cycle;Signal;HPM_P1;HPM_P2
2023/08/25 00:01:37;;;;;;;4.60;3.97;;;;;;;;;;5101940;28;20528;-81
2023/08/25 00:04:06;;;;;;;10.93;5.10;;;;;;;;;;5102211;28;20827;-81
2023/08/25 00:06:33;;;;;;;10.17;4.23;;;;;;;;;;5102041;28;20439;-81
2023/08/25 00:09:00;;;;;;;8.13;3.80;;;;;;;;;;5102641;28;20459;-81
2023/08/25 00:11:27;;;;;;;10.80;5.63;;;;;;;;;;5101464;28;20459;-81
2023/08/25 00:13:54;;;;;;;8.50;4.70;;;;;;;;;;5101377;28;20446;-82
2023/08/25 00:16:21;;;;;;;12.40;5.57;;;;;;;;;;5101879;28;20973;-80
2023/08/25 00:18:48;;;;;;;10.10;5.13;;;;;;;;;;5101464;28;20450;-82
2023/08/25 00:21:17;;;;;;;7.13;4.50;;;;;;;;;;5101593;28;20812;-82
2023/08/25 00:23:44;;;;;;;10.10;4.83;;;;;;;;;;5102144;28;20574;-81
2023/08/25 00:26:11;;;;;;;8.50;4.27;;;;;;;;;;5103025;28;20449;-81
2023/08/25 00:28:38;;;;;;;10.00;3.87;;;;;;;;;;5102354;28;20446;-82
2023/08/25 00:31:06;;;;;;;14.50;4.97;;;;;;;;;;5103178;28;20446;-81
2023/08/25 00:33:33;;;;;;;7.30;4.07;;;;;;;;;;5103300;28;20458;-79
2023/08/25 00:36:00;;;;;;;16.93;5.60;;;;;;;;;;5104039;28;20446;-81
2023/08/25 00:38:28;;;;;;;9.63;4.60;;;;;;;;;;5105462;28;20464;-81
2023/08/25 00:40:56;;;;;;;6.63;4.20;;;;;;;;;;5105900;28;20791;-82
2023/08/25 00:43:23;;;;;;;12.03;4.90;;;;;;;;;;5105553;28;20458;-82
2023/08/25 00:45:50;;;;;;;6.63;3.83;;;;;;;;;;5106265;28;20942;-80
2023/08/25 00:48:17;;;;;;;8.20;4.60;;;;;;;;;;5106612;28;20459;-79
2023/08/25 00:50:44;;;;;;;9.60;4.50;;;;;;;;;;5106694;28;20446;-83
2023/08/25 00:53:12;;;;;;;13.60;5.10;;;;;;;;;;5106290;28;20474;-82
2023/08/25 00:55:40;;;;;;;6.90;4.17;;;;;;;;;;5106838;28;20450;-83
2023/08/25 00:58:09;;;;;;;9.67;6.13;;;;;;;;;;5105049;28;20458;-82
2023/08/25 01:00:36;;;;;;;9.20;4.60;;;;;;;;;;5106719;28;20504;-82
2023/08/25 01:03:04;;;;;;;7.53;4.33;;;;;;;;;;5106645;28;20481;-82
2023/08/25 01:05:31;;;;;;;8.20;4.93;;;;;;;;;;5106075;28;20526;-83
2023/08/25 01:07:58;;;;;;;11.37;5.37;;;;;;;;;;5106914;28;20454;-82
2023/08/25 01:10:29;;;;;;;8.60;5.03;;;;;;;;;;5104851;28;20442;-84
2023/08/25 01:13:11;;;;;;;14.40;5.00;;;;;;;;;;5105987;28;20465;-83
2023/08/25 01:15:41;;;;;;;6.30;4.90;;;;;;;;;;5106977;28;20867;-82
2023/08/25 01:18:11;;;;;;;15.30;5.90;;;;;;;;;;5105803;28;20504;-83
2023/08/25 01:20:40;;;;;;;9.90;5.10;;;;;;;;;;5106997;28;20447;-84
2023/08/25 01:23:16;;;;;;;9.67;4.70;;;;;;;;;;5107444;28;20979;-84
2023/08/25 01:25:45;;;;;;;8.40;4.30;;;;;;;;;;5107175;28;20500;-83
2023/08/25 01:28:13;;;;;;;15.60;4.17;;;;;;;;;;5106774;28;20508;-83
2023/08/25 01:30:40;;;;;;;9.23;4.50;;;;;;;;;;5107573;28;20472;-82
2023/08/25 01:33:07;;;;;;;8.07;4.30;;;;;;;;;;5107073;28;20478;-84
2023/08/25 01:35:40;;;;;;;9.10;4.87;;;;;;;;;;5108100;28;20998;-83
2023/08/25 01:38:09;;;;;;;6.80;4.03;;;;;;;;;;5108513;28;20479;-82
2023/08/25 01:40:40;;;;;;;18.20;4.90;;;;;;;;;;5108219;28;21013;-82
2023/08/25 01:43:11;;;;;;;6.80;3.80;;;;;;;;;;5108544;28;20467;-81
2023/08/25 01:45:38;;;;;;;11.83;4.90;;;;;;;;;;5108209;28;20505;-82
2023/08/25 01:48:07;;;;;;;7.03;4.07;;;;;;;;;;5108110;28;20451;-82
2023/08/25 01:50:34;;;;;;;10.70;5.20;;;;;;;;;;5108199;28;20453;-82
2023/08/25 01:53:02;;;;;;;5.87;4.10;;;;;;;;;;5108677;28;20451;-81
2023/08/25 01:55:29;;;;;;;7.97;4.40;;;;;;;;;;5108381;28;20542;-82
2023/08/25 01:57:57;;;;;;;7.40;4.50;;;;;;;;;;5105129;28;20461;-83
2023/08/25 02:00:25;;;;;;;9.10;4.07;;;;;;;;;;5105514;28;20442;-83
2023/08/25 02:02:53;;;;;;;9.00;3.70;;;;;;;;;;5104638;28;20431;-82
2023/08/25 02:05:21;;;;;;;10.00;4.40;;;;;;;;;;5104620;28;20490;-83
2023/08/25 02:07:48;;;;;;;12.93;4.47;;;;;;;;;;5104620;28;20489;-82
2023/08/25 02:10:15;;;;;;;9.00;5.17;;;;;;;;;;5103924;28;20812;-83
2023/08/25 02:12:42;;;;;;;9.03;4.70;;;;;;;;;;5105080;28;20481;-83
2023/08/25 02:15:11;;;;;;;13.03;4.63;;;;;;;;;;5105794;28;20463;-83
2023/08/25 02:17:40;;;;;;;10.27;3.60;;;;;;;;;;5105727;28;20438;-83
2023/08/25 02:20:07;;;;;;;13.37;4.60;;;;;;;;;;5104732;28;20446;-83
2023/08/25 02:22:36;;;;;;;13.73;4.30;;;;;;;;;;5105092;28;20817;-83
2023/08/25 02:25:04;;;;;;;9.03;5.67;;;;;;;;;;5105273;28;20544;-83
2023/08/25 02:27:31;;;;;;;10.80;4.43;;;;;;;;;;5105551;28;20454;-81
2023/08/25 02:29:58;;;;;;;8.33;3.80;;;;;;;;;;5105433;28;20918;-83
2023/08/25 02:32:25;;;;;;;7.80;4.30;;;;;;;;;;5105306;28;20473;-83
2023/08/25 02:34:54;;;;;;;8.73;4.80;;;;;;;;;;5104727;28;20435;-81
2023/08/25 02:37:21;;;;;;;10.87;5.47;;;;;;;;;;5104495;28;20439;-83
2023/08/25 02:39:48;;;;;;;11.27;5.77;;;;;;;;;;5103778;28;20454;-84
2023/08/25 02:42:15;;;;;;;5.57;4.20;;;;;;;;;;5104327;28;20562;-84
2023/08/25 02:44:42;;;;;;;10.70;5.17;;;;;;;;;;5104151;28;20998;-81
2023/08/25 02:47:10;;;;;;;12.53;6.47;;;;;;;;;;5104539;28;20454;-82
2023/08/25 02:49:38;;;;;;;7.70;5.97;;;;;;;;;;5103887;28;20455;-83
2023/08/25 02:52:07;;;;;;;12.37;6.90;;;;;;;;;;5103736;28;20494;-83
2023/08/25 02:54:34;;;;;;;15.87;5.77;;;;;;;;;;5104355;28;20950;-84
2023/08/25 02:57:01;;;;;;;7.57;5.10;;;;;;;;;;5103378;28;20947;-84
2023/08/25 02:59:29;;;;;;;9.90;5.23;;;;;;;;;;5103990;28;20877;-84
2023/08/25 03:01:56;;;;;;;15.20;9.93;;;;;;;;;;5104423;28;20470;-83
2023/08/25 03:04:23;;;;;;;7.70;5.37;;;;;;;;;;5105047;28;20489;-83
2023/08/25 03:06:50;;;;;;;10.43;5.40;;;;;;;;;;5103790;28;20819;-84
2023/08/25 03:09:19;;;;;;;6.80;4.43;;;;;;;;;;5103213;28;20439;-83
2023/08/25 03:11:46;;;;;;;11.20;3.93;;;;;;;;;;5103294;28;20814;-83
2023/08/25 03:14:13;;;;;;;10.40;3.83;;;;;;;;;;5102761;28;20457;-83
2023/08/25 03:16:40;;;;;;;8.33;5.50;;;;;;;;;;5103929;28;20473;-83
2023/08/25 03:19:07;;;;;;;8.87;5.33;;;;;;;;;;5102792;28;20545;-81
2023/08/25 03:21:34;;;;;;;10.23;5.23;;;;;;;;;;5102355;28;20815;-82
2023/08/25 03:24:02;;;;;;;7.60;4.40;;;;;;;;;;5103730;28;20954;-82
2023/08/25 03:26:30;;;;;;;9.93;5.80;;;;;;;;;;5104825;28;20447;-82
2023/08/25 03:28:57;;;;;;;7.20;4.80;;;;;;;;;;5103555;28;20431;-81
2023/08/25 03:31:24;;;;;;;11.73;6.70;;;;;;;;;;5103571;28;20435;-81
2023/08/25 03:33:52;;;;;;;10.10;5.20;;;;;;;;;;5103910;28;20485;-80
2023/08/25 03:36:19;;;;;;;11.73;5.57;;;;;;;;;;5102757;28;20537;-82
2023/08/25 03:38:46;;;;;;;7.90;5.23;;;;;;;;;;5103491;28;20490;-82
2023/08/25 03:41:13;;;;;;;8.43;4.70;;;;;;;;;;5103778;28;20559;-82
2023/08/25 03:43:42;;;;;;;14.53;6.27;;;;;;;;;;5103469;28;20537;-82
2023/08/25 03:46:09;;;;;;;5.27;4.40;;;;;;;;;;5103621;28;20498;-82
2023/08/25 03:48:36;;;;;;;6.47;4.03;;;;;;;;;;5103153;28;20446;-81
2023/08/25 03:51:03;;;;;;;8.50;5.40;;;;;;;;;;5103202;28;20449;-83
2023/08/25 03:53:30;;;;;;;9.03;8.10;;;;;;;;;;5103123;28;20502;-83
2023/08/25 03:55:57;;;;;;;12.87;7.73;;;;;;;;;;5102659;28;20814;-82
2023/08/25 03:58:25;;;;;;;11.20;5.57;;;;;;;;;;5103044;28;20950;-83
2023/08/25 04:00:55;;;;;;;8.77;4.70;;;;;;;;;;5102560;28;20969;-83
2023/08/25 04:03:22;;;;;;;7.83;5.80;;;;;;;;;;5102987;28;20519;-84
2023/08/25 04:05:49;;;;;;;8.87;4.77;;;;;;;;;;5103731;28;20486;-81
2023/08/25 04:08:16;;;;;;;9.43;4.90;;;;;;;;;;5103037;28;21014;-84
2023/08/25 04:10:44;;;;;;;10.30;5.50;;;;;;;;;;5103581;28;20447;-83
2023/08/25 04:13:12;;;;;;;12.07;6.50;;;;;;;;;;5102343;28;20482;-83
2023/08/25 04:15:39;;;;;;;8.17;7.27;;;;;;;;;;5104061;28;20459;-83
2023/08/25 04:18:07;;;;;;;7.20;4.60;;;;;;;;;;5102230;28;20465;-83
2023/08/25 04:20:35;;;;;;;18.10;6.10;;;;;;;;;;5102062;28;20458;-83
2023/08/25 04:23:02;;;;;;;10.17;4.93;;;;;;;;;;5101548;28;20566;-83
2023/08/25 04:25:30;;;;;;;6.97;4.43;;;;;;;;;;5100960;28;20490;-82
2023/08/25 04:27:57;;;;;;;7.47;3.70;;;;;;;;;;5100789;28;20449;-79
2023/08/25 04:30:24;;;;;;;5.67;3.33;;;;;;;;;;5097378;28;20431;-80
2023/08/25 04:32:52;;;;;;;6.40;4.60;;;;;;;;;;5099853;28;20966;-81
2023/08/25 04:35:20;;;;;;;11.50;4.33;;;;;;;;;;5101175;28;20453;-81
2023/08/25 04:37:48;;;;;;;6.60;3.30;;;;;;;;;;5100361;28;20450;-79
2023/08/25 04:40:15;;;;;;;6.37;3.37;;;;;;;;;;5100293;28;20954;-80
2023/08/25 04:42:43;;;;;;;12.57;6.83;;;;;;;;;;5100772;28;20498;-81
2023/08/25 04:45:11;;;;;;;7.80;4.90;;;;;;;;;;5100251;28;20578;-81
2023/08/25 04:47:38;;;;;;;7.20;4.70;;;;;;;;;;5100547;28;20465;-80
2023/08/25 04:50:07;;;;;;;9.13;3.93;;;;;;;;;;5100577;28;20446;-80
2023/08/25 04:52:36;;;;;;;7.10;4.00;;;;;;;;;;5100297;28;20462;-80
2023/08/25 04:55:04;;;;;;;6.90;4.17;;;;;;;;;;5100565;28;20450;-80
2023/08/25 04:57:31;;;;;;;9.17;3.53;;;;;;;;;;5101855;28;20515;-80
2023/08/25 04:59:58;;;;;;;5.50;3.77;;;;;;;;;;5102075;28;20453;-81
2023/08/25 05:02:25;;;;;;;7.07;3.20;;;;;;;;;;5101588;28;20477;-81
2023/08/25 05:04:52;;;;;;;6.30;5.00;;;;;;;;;;5102562;28;20493;-80
2023/08/25 05:07:19;;;;;;;8.57;4.97;;;;;;;;;;5101895;28;20454;-81
2023/08/25 05:09:48;;;;;;;12.80;6.20;;;;;;;;;;5100723;28;20466;-81
2023/08/25 05:12:15;;;;;;;14.13;5.07;;;;;;;;;;5099980;28;20997;-80
2023/08/25 05:14:42;;;;;;;9.10;4.53;;;;;;;;;;5099034;28;20596;-80
2023/08/25 05:17:09;;;;;;;7.97;3.50;;;;;;;;;;5098695;28;20961;-80
2023/08/25 05:19:37;;;;;;;7.10;3.97;;;;;;;;;;5098202;28;20462;-80
2023/08/25 05:22:04;;;;;;;6.40;3.63;;;;;;;;;;5098631;28;20989;-80
2023/08/25 05:24:31;;;;;;;9.10;2.90;;;;;;;;;;5097700;28;20947;-80
2023/08/25 05:27:00;;;;;;;19.20;6.00;;;;;;;;;;5098108;28;20837;-80
2023/08/25 05:29:27;;;;;;;7.53;4.23;;;;;;;;;;5098125;28;20854;-80
2023/08/25 05:31:55;;;;;;;6.50;2.90;;;;;;;;;;5097732;28;20466;-80
2023/08/25 05:34:28;;;;;;;5.27;2.90;;;;;;;;;;5097514;28;20471;-81
2023/08/25 05:36:55;;;;;;;6.47;2.60;;;;;;;;;;5098188;28;20514;-80
2023/08/25 05:39:22;;;;;;;3.97;2.40;;;;;;;;;;5098086;28;20950;-80
2023/08/25 05:41:50;;;;;;;8.70;3.43;;;;;;;;;;5098027;28;20489;-80
2023/08/25 05:44:18;;;;;;;7.27;3.47;;;;;;;;;;5097228;28;20451;-81
2023/08/25 05:46:47;;;;;;;6.77;4.73;;;;;;;;;;5098633;28;20825;-81
2023/08/25 05:49:14;;;;;;;10.57;3.53;;;;;;;;;;5105069;28;20482;-82
2023/08/25 05:51:41;;;;;;;7.57;3.40;;;;;;;;;;5106026;28;20520;-82
2023/08/25 05:54:10;;;;;;;7.93;3.70;;;;;;;;;;5088903;28;20450;-82
2023/08/25 05:56:37;;;;;;;6.00;3.43;;;;;;;;;;5084630;28;20488;-83
2023/08/25 05:59:04;;;;;;;8.73;3.30;;;;;;;;;;5085689;28;20459;-82
2023/08/25 06:01:32;;;;;;;7.50;2.90;;;;;;;;;;5084624;28;20782;-82
2023/08/25 06:04:00;;;;;;;8.30;2.50;;;;;;;;;;5084971;28;20519;-82
2023/08/25 06:06:27;;;;;;;5.20;2.53;;;;;;;;;;5083091;28;20545;-82
2023/08/25 06:08:54;;;;;;;7.83;2.70;;;;;;;;;;5084126;28;20460;-81
2023/08/25 06:11:22;;;;;;;7.83;2.87;;;;;;;;;;5084628;28;20452;-81
2023/08/25 06:13:49;;;;;;;4.97;2.80;;;;;;;;;;5084963;28;20467;-82
2023/08/25 06:16:16;;;;;;;9.53;3.13;;;;;;;;;;5085589;28;20468;-82
2023/08/25 06:18:45;;;;;;;14.43;5.10;;;;;;;;;;5086416;28;20507;-80
2023/08/25 06:21:12;;;;;;;6.30;4.60;;;;;;;;;;5086556;28;20868;-82
2023/08/25 06:23:39;;;;;;;12.93;4.77;;;;;;;;;;5085259;28;20555;-82
2023/08/25 06:26:07;;;;;;;7.60;4.23;;;;;;;;;;5083628;28;20480;-81
2023/08/25 06:28:34;;;;;;;19.10;7.07;;;;;;;;;;5084991;28;20476;-81
2023/08/25 06:31:01;;;;;;;9.03;4.47;;;;;;;;;;5084482;28;20983;-81
2023/08/25 06:33:29;;;;;;;5.37;3.40;;;;;;;;;;5084440;28;20475;-82
2023/08/25 06:35:58;;;;;;;9.27;4.87;;;;;;;;;;5084060;28;20822;-82
2023/08/25 06:38:25;;;;;;;9.80;4.60;;;;;;;;;;5083601;28;20456;-82
2023/08/25 06:40:54;;;;;;;10.67;4.60;;;;;;;;;;5084331;28;20440;-81
2023/08/25 06:43:22;;;;;;;8.90;5.10;;;;;;;;;;5084492;28;20468;-81
2023/08/25 06:45:49;;;;;;;14.43;5.60;;;;;;;;;;5083922;28;20523;-80
2023/08/25 06:48:16;;;;;;;11.30;4.47;;;;;;;;;;5082211;28;20831;-82
2023/08/25 06:50:43;;;;;;;9.90;4.40;;;;;;;;;;5084021;28;20456;-82
2023/08/25 06:53:12;;;;;;;9.60;3.80;;;;;;;;;;5079785;28;20458;-81
2023/08/25 06:55:39;;;;;;;8.13;4.13;;;;;;;;;;5077603;28;20440;-82
2023/08/25 06:58:07;;;;;;;6.87;3.57;;;;;;;;;;5079700;28;20454;-82
2023/08/25 07:00:34;;;;;;;8.33;6.00;;;;;;;;;;5080485;28;20471;-82
2023/08/25 07:03:03;;;;;;;10.40;6.33;;;;;;;;;;5080877;28;20825;-82
2023/08/25 07:05:30;;;;;;;13.57;5.60;;;;;;;;;;5080626;28;20519;-82
2023/08/25 07:07:58;;;;;;;12.20;4.93;;;;;;;;;;5078845;28;20463;-82
2023/08/25 07:10:27;;;;;;;6.63;4.70;;;;;;;;;;5078186;28;20455;-81
2023/08/25 07:12:54;;;;;;;11.90;4.93;;;;;;;;;;5078716;28;20496;-82
2023/08/25 07:15:21;;;;;;;8.80;4.97;;;;;;;;;;5077576;28;20467;-82
2023/08/25 07:17:48;;;;;;;7.37;4.37;;;;;;;;;;5078167;28;20466;-81
2023/08/25 07:20:16;;;;;;;4.50;4.10;;;;;;;;;;5079572;28;20786;-81
2023/08/25 07:22:43;;;;;;;7.93;4.20;;;;;;;;;;5079874;28;20466;-81
2023/08/25 07:25:11;;;;;;;8.10;6.30;;;;;;;;;;5080308;28;20452;-81
2023/08/25 07:27:39;;;;;;;7.10;5.20;;;;;;;;;;5079071;28;20475;-80
2023/08/25 07:30:07;;;;;;;7.30;4.37;;;;;;;;;;5079996;28;20447;-81
2023/08/25 07:32:34;;;;;;;8.73;4.73;;;;;;;;;;5079719;28;20493;-80
2023/08/25 07:35:01;;;;;;;11.63;4.70;;;;;;;;;;5079061;28;20804;-80
2023/08/25 07:40:32;;;;;;;11.23;4.63;;;;;;;;;;5077426;28;20394;-82
2023/08/25 07:43:02;;;;;;;9.73;4.20;;;;;;;;;;5077411;28;20478;-80
2023/08/25 07:45:29;;;;;;;6.17;4.73;;;;;;;;;;5077768;28;20456;-80
2023/08/25 07:47:58;;;;;;;11.13;6.13;;;;;;;;;;5077765;28;20462;-80
2023/08/25 07:50:25;;;;;;;9.90;6.27;;;;;;;;;;5076531;28;20463;-78
2023/08/25 07:52:53;;;;;;;12.97;6.97;;;;;;;;;;5074623;28;20494;-79
2023/08/25 07:55:20;;;;;;;13.33;6.10;;;;;;;;;;5075430;28;20439;-79
2023/08/25 07:57:47;;;;;;;13.27;6.10;;;;;;;;;;5075391;28;20963;-80
2023/08/25 08:00:17;;;;;;;15.27;6.30;;;;;;;;;;5075031;28;20940;-80
2023/08/25 08:02:45;;;;;;;12.93;5.90;;;;;;;;;;5075910;28;20560;-80
2023/08/25 08:05:12;;;;;;;8.93;5.43;;;;;;;;;;5076526;28;20448;-79
2023/08/25 08:07:39;;;;;;;7.87;5.20;;;;;;;;;;5078215;28;20606;-80
2023/08/25 08:10:07;;;;;;;8.10;5.30;;;;;;;;;;5079123;28;20477;-79
2023/08/25 08:12:34;;;;;;;7.83;5.67;;;;;;;;;;5079565;28;20468;-79
2023/08/25 08:15:03;;;;;;;11.40;4.60;;;;;;;;;;5079120;28;20525;-78
2023/08/25 08:17:32;;;;;;;10.63;5.20;;;;;;;;;;5080573;28;20452;-79
2023/08/25 08:20:00;;;;;;;7.10;4.47;;;;;;;;;;5081140;28;20570;-79
2023/08/25 08:22:28;;;;;;;4.83;4.23;;;;;;;;;;5080943;28;20475;-79
2023/08/25 08:24:55;;;;;;;8.90;5.10;;;;;;;;;;5080000;28;20447;-79
2023/08/25 08:27:22;;;;;;;8.80;5.10;;;;;;;;;;5080452;28;20514;-79
2023/08/25 08:29:49;;;;;;;8.70;5.40;;;;;;;;;;5080170;28;20448;-78
2023/08/25 08:32:17;;;;;;;7.63;4.10;;;;;;;;;;5080203;28;20551;-78
2023/08/25 08:34:45;;;;;;;6.57;4.40;;;;;;;;;;5079955;28;20448;-78
2023/08/25 08:37:12;;;;;;;10.33;3.57;;;;;;;;;;5079702;28;20483;-80
2023/08/25 08:39:40;;;;;;;6.50;3.87;;;;;;;;;;5078495;28;20458;-79
2023/08/25 08:42:07;;;;;;;6.37;4.60;;;;;;;;;;5079744;28;20479;-79
2023/08/25 08:44:36;;;;;;;7.70;3.20;;;;;;;;;;5079921;28;21009;-77
2023/08/25 08:47:04;;;;;;;7.30;3.80;;;;;;;;;;5079151;28;20492;-79
2023/08/25 08:49:32;;;;;;;9.50;3.10;;;;;;;;;;5079003;28;20448;-79
2023/08/25 08:52:03;;;;;;;17.80;5.77;;;;;;;;;;5079375;28;20506;-78
2023/08/25 08:54:32;;;;;;;7.47;4.03;;;;;;;;;;5078380;28;20794;-78
2023/08/25 08:57:00;;;;;;;6.60;3.80;;;;;;;;;;5077459;28;20463;-77
2023/08/25 08:59:27;;;;;;;8.77;3.20;;;;;;;;;;5077656;28;20495;-78
2023/08/25 09:01:54;;;;;;;8.10;3.63;;;;;;;;;;5077663;28;20570;-78
2023/08/25 09:04:23;;;;;;;7.83;3.80;;;;;;;;;;5077964;28;20448;-79
2023/08/25 09:06:51;;;;;;;7.50;3.57;;;;;;;;;;5077122;28;20495;-78
2023/08/25 09:09:20;;;;;;;4.90;3.57;;;;;;;;;;5078264;28;20463;-77
2023/08/25 09:11:47;;;;;;;8.43;3.70;;;;;;;;;;5078301;28;20959;-77
2023/08/25 09:14:23;;;;;;;4.87;2.97;;;;;;;;;;5073692;28;20467;-78
2023/08/25 09:16:50;;;;;;;5.00;2.60;;;;;;;;;;5077193;28;20832;-78
2023/08/25 09:19:17;;;;;;;5.43;3.10;;;;;;;;;;5075502;28;20452;-78
2023/08/25 09:21:46;;;;;;;8.80;3.10;;;;;;;;;;5076827;28;20912;-77
2023/08/25 09:24:18;;;;;;;5.93;3.53;;;;;;;;;;5076004;28;20462;-78
2023/08/25 09:26:47;;;;;;;6.13;4.07;;;;;;;;;;5075998;28;20830;-78
2023/08/25 09:29:14;;;;;;;9.53;4.10;;;;;;;;;;5076976;28;20448;-78
2023/08/25 09:31:41;;;;;;;4.37;3.23;;;;;;;;;;5077366;28;20936;-78
2023/08/25 09:34:09;;;;;;;3.93;3.30;;;;;;;;;;5076660;28;20451;-78
2023/08/25 09:36:50;;;;;;;5.97;3.43;;;;;;;;;;5077751;28;20439;-78
2023/08/25 09:39:17;;;;;;;9.43;3.57;;;;;;;;;;5077569;28;20462;-78
2023/08/25 09:41:46;;;;;;;5.77;3.20;;;;;;;;;;5082365;28;20467;-78
2023/08/25 09:44:15;;;;;;;6.83;3.03;;;;;;;;;;5079576;28;20944;-78
2023/08/25 09:46:43;;;;;;;5.93;3.87;;;;;;;;;;5076665;28;20490;-77
2023/08/25 09:49:11;;;;;;;8.03;4.07;;;;;;;;;;5077755;28;20470;-78
2023/08/25 09:51:39;;;;;;;15.13;3.97;;;;;;;;;;5076586;28;20970;-78
2023/08/25 09:54:09;;;;;;;6.40;4.23;;;;;;;;;;5077460;28;20476;-78
2023/08/25 09:56:37;;;;;;;10.90;3.83;;;;;;;;;;5075956;28;20947;-78
2023/08/25 09:59:04;;;;;;;8.67;3.70;;;;;;;;;;5075142;28;20497;-78
2023/08/25 10:01:33;;;;;;;12.70;4.03;;;;;;;;;;5076875;28;20467;-77
2023/08/25 10:04:02;;;;;;;6.70;3.43;;;;;;;;;;5075671;28;20448;-77
2023/08/25 10:06:30;;;;;;;6.33;3.50;;;;;;;;;;5076985;28;20499;-78
2023/08/25 10:08:57;;;;;;;8.00;3.93;;;;;;;;;;5077170;28;20452;-79
2023/08/25 10:11:28;;;;;;;7.97;5.83;;;;;;;;;;5076863;28;20454;-78
2023/08/25 10:13:56;;;;;;;9.43;3.23;;;;;;;;;;5077706;28;20452;-78
2023/08/25 10:16:24;;;;;;;5.73;3.60;;;;;;;;;;5076231;28;20459;-78
2023/08/25 10:18:54;;;;;;;5.13;3.33;;;;;;;;;;5076275;28;21086;-78
2023/08/25 10:21:22;;;;;;;6.63;3.30;;;;;;;;;;5076708;28;20476;-78
2023/08/25 10:23:50;;;;;;;6.53;4.33;;;;;;;;;;5075757;28;20837;-78
2023/08/25 10:26:17;;;;;;;4.90;3.70;;;;;;;;;;5076395;28;20447;-78
2023/08/25 10:28:45;;;;;;;6.00;4.33;;;;;;;;;;5076566;28;20455;-78
2023/08/25 10:31:13;;;;;;;11.43;3.97;;;;;;;;;;5077587;28;20451;-78
2023/08/25 10:33:47;;;;;;;5.97;4.43;;;;;;;;;;5078096;28;20880;-78
2023/08/25 10:36:17;;;;;;;8.13;4.60;;;;;;;;;;5078622;28;20459;-78
2023/08/25 10:38:46;;;;;;;17.23;5.03;;;;;;;;;;5078693;28;20448;-78
2023/08/25 10:41:14;;;;;;;6.33;4.30;;;;;;;;;;5081955;28;20447;-80
2023/08/25 10:43:42;;;;;;;11.63;4.57;;;;;;;;;;5092363;28;20468;-80
2023/08/25 10:46:09;;;;;;;8.13;4.03;;;;;;;;;;5092675;28;20447;-80
2023/08/25 10:48:38;;;;;;;8.90;3.80;;;;;;;;;;5091472;28;20494;-80
2023/08/25 10:51:09;;;;;;;7.13;4.20;;;;;;;;;;5092221;28;20458;-80
2023/08/25 10:53:39;;;;;;;7.07;3.80;;;;;;;;;;5092456;28;20502;-81
2023/08/25 10:56:16;;;;;;;8.27;3.87;;;;;;;;;;5091820;28;20515;-81
2023/08/25 10:58:43;;;;;;;5.50;3.07;;;;;;;;;;5091777;28;20442;-81
2023/08/25 11:01:10;;;;;;;3.47;3.17;;;;;;;;;;5088132;28;20551;-80
2023/08/25 11:03:47;;;;;;;3.33;2.87;;;;;;;;;;5090684;28;20558;-80
2023/08/25 11:06:34;;;;;;;6.20;2.97;;;;;;;;;;5088984;28;20447;-81
2023/08/25 11:09:03;;;;;;;4.43;2.87;;;;;;;;;;5089633;28;20451;-80
2023/08/25 11:11:30;;;;;;;4.33;3.33;;;;;;;;;;5089556;28;20452;-80
2023/08/25 11:13:58;;;;;;;4.13;3.73;;;;;;;;;;5089429;28;20463;-81
2023/08/25 11:16:25;;;;;;;3.53;3.10;;;;;;;;;;5085451;28;20530;-79
2023/08/25 11:18:52;;;;;;;3.97;3.03;;;;;;;;;;5085159;28;21004;-79
2023/08/25 11:21:23;;;;;;;5.13;3.20;;;;;;;;;;5084506;28;20552;-80
2023/08/25 11:23:51;;;;;;;7.00;3.53;;;;;;;;;;5084084;28;20455;-79
2023/08/25 11:26:19;;;;;;;3.93;3.53;;;;;;;;;;5083570;28;20892;-79
2023/08/25 11:28:50;;;;;;;3.80;3.40;;;;;;;;;;5081945;28;20578;-78
2023/08/25 11:31:18;;;;;;;4.33;2.93;;;;;;;;;;5081731;28;20448;-80
2023/08/25 11:33:46;;;;;;;5.63;3.40;;;;;;;;;;5084715;28;20475;-80
2023/08/25 11:36:16;;;;;;;3.77;3.00;;;;;;;;;;5083355;28;20943;-80
2023/08/25 11:38:43;;;;;;;3.13;2.90;;;;;;;;;;5083410;28;20440;-80
2023/08/25 11:41:12;;;;;;;3.37;3.07;;;;;;;;;;5084670;28;20797;-81
2023/08/25 11:43:41;;;;;;;2.90;2.70;;;;;;;;;;5087038;28;20567;-78
2023/08/25 11:46:09;;;;;;;3.70;2.60;;;;;;;;;;5088701;28;20572;-80
2023/08/25 11:48:37;;;;;;;4.23;3.83;;;;;;;;;;5087610;28;20894;-82
2023/08/25 11:51:04;;;;;;;4.60;3.50;;;;;;;;;;5083373;28;20528;-77
2023/08/25 11:53:31;;;;;;;6.57;3.77;;;;;;;;;;5082620;28;20490;-77
2023/08/25 11:56:02;;;;;;;4.50;4.10;;;;;;;;;;5087308;28;20513;-80
2023/08/25 11:58:32;;;;;;;3.80;2.90;;;;;;;;;;5085414;28;20839;-79
2023/08/25 12:01:06;;;;;;;6.37;3.63;;;;;;;;;;5086234;28;20976;-79
2023/08/25 12:03:34;;;;;;;4.00;3.60;;;;;;;;;;5086394;28;20468;-80
2023/08/25 12:06:04;;;;;;;6.67;4.27;;;;;;;;;;5084926;28;20462;-78
2023/08/25 12:08:32;;;;;;;4.93;4.47;;;;;;;;;;5085479;28;20487;-80
2023/08/25 12:10:59;;;;;;;4.00;3.43;;;;;;;;;;5085624;28;20456;-79
2023/08/25 12:13:26;;;;;;;4.00;3.50;;;;;;;;;;5087571;28;20802;-80
2023/08/25 12:15:54;;;;;;;3.90;3.50;;;;;;;;;;5087258;28;20523;-79
2023/08/25 12:18:23;;;;;;;3.40;3.10;;;;;;;;;;5087401;28;20508;-79
2023/08/25 12:20:51;;;;;;;5.80;3.40;;;;;;;;;;5086816;28;20448;-80
2023/08/25 12:23:18;;;;;;;4.27;3.40;;;;;;;;;;5086368;28;20471;-80
2023/08/25 12:25:45;;;;;;;6.00;3.70;;;;;;;;;;5086613;28;20471;-80
2023/08/25 12:28:13;;;;;;;4.03;3.27;;;;;;;;;;5087485;28;20564;-80
2023/08/25 12:30:40;;;;;;;3.87;3.50;;;;;;;;;;5087522;28;20501;-78
2023/08/25 12:33:07;;;;;;;7.70;4.80;;;;;;;;;;5086654;28;20487;-79
2023/08/25 12:35:36;;;;;;;7.60;4.30;;;;;;;;;;5086895;28;20452;-80
2023/08/25 12:38:03;;;;;;;7.30;3.87;;;;;;;;;;5082944;28;20448;-79
2023/08/25 12:40:30;;;;;;;4.63;3.07;;;;;;;;;;5080117;28;20458;-79
2023/08/25 12:42:57;;;;;;;6.80;4.17;;;;;;;;;;5079966;28;20924;-80
2023/08/25 12:45:25;;;;;;;5.00;3.70;;;;;;;;;;5083408;28;20448;-80
2023/08/25 12:47:52;;;;;;;5.37;3.73;;;;;;;;;;5086106;28;20493;-80
2023/08/25 12:50:19;;;;;;;7.20;4.87;;;;;;;;;;5084961;28;20484;-78
2023/08/25 12:52:48;;;;;;;9.80;4.53;;;;;;;;;;5085067;28;20462;-80
2023/08/25 12:55:15;;;;;;;5.37;4.20;;;;;;;;;;5085193;28;20436;-79
2023/08/25 12:57:44;;;;;;;8.90;4.73;;;;;;;;;;5084156;28;20466;-79
2023/08/25 13:00:12;;;;;;;5.83;4.17;;;;;;;;;;5085354;28;20451;-79
2023/08/25 13:02:40;;;;;;;6.43;3.70;;;;;;;;;;5083263;28;20546;-79
2023/08/25 13:05:09;;;;;;;3.97;3.47;;;;;;;;;;5081964;28;20462;-80
2023/08/25 13:07:36;;;;;;;4.20;3.40;;;;;;;;;;5082362;28;20491;-80
2023/08/25 13:10:05;;;;;;;3.53;3.03;;;;;;;;;;5084046;28;20451;-81
2023/08/25 13:12:32;;;;;;;4.30;2.83;;;;;;;;;;5083467;28;20468;-80
2023/08/25 13:15:00;;;;;;;4.50;3.00;;;;;;;;;;5084465;28;20470;-81
2023/08/25 13:17:27;;;;;;;4.90;3.47;;;;;;;;;;5083267;28;20448;-80
2023/08/25 13:19:55;;;;;;;4.33;3.37;;;;;;;;;;5083799;28;20546;-79
2023/08/25 13:22:22;;;;;;;3.63;3.33;;;;;;;;;;5081130;28;21026;-78
2023/08/25 13:24:49;;;;;;;5.43;4.03;;;;;;;;;;5081247;28;20857;-77
2023/08/25 13:27:18;;;;;;;4.63;4.13;;;;;;;;;;5080360;28;20574;-78
2023/08/25 13:29:45;;;;;;;4.63;3.37;;;;;;;;;;5081679;28;20448;-78
2023/08/25 13:32:12;;;;;;;4.10;3.70;;;;;;;;;;5081122;28;20470;-78
2023/08/25 13:34:39;;;;;;;3.63;3.33;;;;;;;;;;5081946;28;20928;-78
2023/08/25 13:37:06;;;;;;;5.47;4.57;;;;;;;;;;5082073;28;20889;-78
2023/08/25 13:39:35;;;;;;;3.80;3.37;;;;;;;;;;5081832;28;20447;-78
2023/08/25 13:42:02;;;;;;;4.87;3.60;;;;;;;;;;5080811;28;20476;-79
2023/08/25 13:44:30;;;;;;;3.97;3.30;;;;;;;;;;5080297;28;20467;-79
2023/08/25 13:46:57;;;;;;;7.33;4.17;;;;;;;;;;5081473;28;20455;-79
2023/08/25 13:49:26;;;;;;;8.57;3.60;;;;;;;;;;5081652;28;20483;-79
2023/08/25 13:51:53;;;;;;;4.03;3.67;;;;;;;;;;5081402;28;20837;-78
2023/08/25 13:54:21;;;;;;;4.83;3.53;;;;;;;;;;5081845;28;20906;-79
2023/08/25 13:56:48;;;;;;;10.03;3.53;;;;;;;;;;5080651;28;20466;-79
2023/08/25 13:59:15;;;;;;;5.90;2.90;;;;;;;;;;5081160;28;20524;-79
2023/08/25 14:01:44;;;;;;;3.60;3.30;;;;;;;;;;5081520;28;20924;-78
2023/08/25 14:04:11;;;;;;;5.03;3.40;;;;;;;;;;5081671;28;20459;-79
2023/08/25 14:06:39;;;;;;;4.50;3.97;;;;;;;;;;5081435;28;20507;-79
2023/08/25 14:09:06;;;;;;;4.73;3.70;;;;;;;;;;5082181;28;20879;-79
2023/08/25 14:11:33;;;;;;;47.70;43.73;;;;;;;;;;5082296;28;20479;-79
2023/08/25 14:14:01;;;;;;;15.40;13.90;;;;;;;;;;5080497;28;20460;-79
2023/08/25 14:16:29;;;;;;;4.57;4.17;;;;;;;;;;5081092;28;20456;-80
2023/08/25 14:18:57;;;;;;;3.60;3.30;;;;;;;;;;5080348;28;20973;-79
2023/08/25 14:21:24;;;;;;;5.63;5.00;;;;;;;;;;5079528;28;20483;-78
2023/08/25 14:23:51;;;;;;;4.70;3.63;;;;;;;;;;5079726;28;20467;-78
2023/08/25 14:26:19;;;;;;;4.90;4.17;;;;;;;;;;5080754;28;20478;-78
2023/08/25 14:28:46;;;;;;;3.97;3.60;;;;;;;;;;5080396;28;20484;-79
2023/08/25 14:31:13;;;;;;;3.13;2.83;;;;;;;;;;5082092;28;20447;-79
2023/08/25 14:33:41;;;;;;;6.83;4.83;;;;;;;;;;5081000;28;20558;-81
2023/08/25 14:36:09;;;;;;;6.00;4.63;;;;;;;;;;5080820;28;20863;-80
2023/08/25 14:38:37;;;;;;;5.27;4.73;;;;;;;;;;5080022;28;20468;-80
2023/08/25 14:41:06;;;;;;;7.27;5.57;;;;;;;;;;5100770;28;20566;-81
2023/08/25 14:43:34;;;;;;;6.40;5.80;;;;;;;;;;5101195;28;20489;-80
2023/08/25 14:46:01;;;;;;;9.23;8.13;;;;;;;;;;5102472;28;20447;-80
2023/08/25 14:48:28;;;;;;;16.00;14.50;;;;;;;;;;5099699;28;21068;-81